Time,TemperatureF,DewpointF,PressureIn,WindDirection,WindDirectionDegrees,WindSpeedMPH,WindSpeedGustMPH,Humidity,HourlyPrecipIn,Conditions,Clouds,dailyrainin,SoftwareType,DateUTC
2013-06-07 00:00:00,58.5,57.0,30.71,East,86,5.7,5.7,94,0.06,,,0.00,TxWx,2013-06-07 04:00:00,
2013-06-07 00:24:00,58.2,57.0,30.70,East,83,3.3,3.3,96,0.00,,,0.00,TxWx,2013-06-07 04:24:00,
2013-06-07 00:29:00,58.2,57.0,30.70,East,85,2.4,2.7,96,0.00,,,0.00,TxWx,2013-06-07 04:29:00,
2013-06-07 00:34:00,58.2,57.0,30.70,East,85,2.1,2.1,97,0.00,,,0.01,TxWx,2013-06-07 04:34:00,
2013-06-07 00:40:00,58.2,57.0,30.70,East,86,2.1,2.4,97,0.06,,,0.01,TxWx,2013-06-07 04:40:00,
2013-06-07 00:45:00,58.1,57.0,30.69,East,86,3.3,3.3,97,0.06,,,0.01,TxWx,2013-06-07 04:45:00,
2013-06-07 00:50:00,58.1,57.0,30.69,East,82,4.2,4.2,97,0.00,,,0.02,TxWx,2013-06-07 04:50:00,
2013-06-07 00:55:00,58.1,57.0,30.68,East,95,2.1,2.1,97,0.00,,,0.02,TxWx,2013-06-07 04:55:00,
2013-06-07 01:00:00,57.9,57.0,30.68,East,83,3.3,3.3,97,0.06,,,0.02,TxWx,2013-06-07 05:00:00,
2013-06-07 01:06:00,57.9,57.0,30.68,East,85,2.7,2.7,97,0.06,,,0.02,TxWx,2013-06-07 05:06:00,
2013-06-07 01:11:00,57.8,57.0,30.68,East,86,3.0,3.0,97,0.00,,,0.02,TxWx,2013-06-07 05:11:00,
2013-06-07 01:16:00,57.8,57.0,30.67,East,86,2.1,2.1,98,0.00,,,0.02,TxWx,2013-06-07 05:16:00,
2013-06-07 01:21:00,57.7,57.0,30.67,East,83,2.7,2.7,98,0.00,,,0.02,TxWx,2013-06-07 05:21:00,
2013-06-07 01:26:00,57.8,57.0,30.67,East,86,0.9,1.2,98,0.00,,,0.02,TxWx,2013-06-07 05:26:00,
2013-06-07 01:31:00,57.7,57.0,30.68,East,86,0.0,0.0,98,0.00,,,0.03,TxWx,2013-06-07 05:31:00,
2013-06-07 01:37:00,57.7,57.0,30.67,East,83,1.2,1.2,98,0.06,,,0.03,TxWx,2013-06-07 05:37:00,
2013-06-07 01:42:00,57.6,57.0,30.67,East,86,1.2,1.5,98,0.06,,,0.03,TxWx,2013-06-07 05:42:00,
2013-06-07 01:47:00,57.7,57.0,30.68,East,84,1.2,1.2,98,0.00,,,0.03,TxWx,2013-06-07 05:47:00,
2013-06-07 01:52:00,57.7,57.0,30.68,East,83,1.5,1.5,98,0.00,,,0.03,TxWx,2013-06-07 05:52:00,
2013-06-07 01:57:00,57.7,57.0,30.68,East,83,1.8,1.8,98,0.00,,,0.03,TxWx,2013-06-07 05:57:00,
2013-06-07 02:03:00,57.6,57.0,30.68,East,83,2.7,2.7,98,0.00,,,0.03,TxWx,2013-06-07 06:03:00,
2013-06-07 02:08:00,57.7,57.0,30.68,East,86,2.1,2.1,98,0.00,,,0.03,TxWx,2013-06-07 06:08:00,
2013-06-07 02:13:00,57.7,57.0,30.67,East,86,3.6,3.9,98,0.00,,,0.03,TxWx,2013-06-07 06:13:00,
2013-06-07 02:18:00,57.8,57.0,30.67,East,85,2.1,2.1,98,0.00,,,0.03,TxWx,2013-06-07 06:18:00,
2013-06-07 02:23:00,57.7,57.0,30.67,East,82,2.4,2.7,97,0.00,,,0.03,TxWx,2013-06-07 06:23:00,
2013-06-07 02:29:00,57.6,57.0,30.67,East,86,2.4,2.4,97,0.00,,,0.03,TxWx,2013-06-07 06:29:00,
2013-06-07 02:34:00,57.5,57.0,30.67,East,83,2.4,2.7,97,0.00,,,0.03,TxWx,2013-06-07 06:34:00,
2013-06-07 02:39:00,57.5,57.0,30.66,East,86,3.3,3.3,97,0.00,,,0.03,TxWx,2013-06-07 06:39:00,
2013-06-07 02:44:00,57.5,57.0,30.66,East,83,3.0,3.0,97,0.00,,,0.03,TxWx,2013-06-07 06:44:00,
2013-06-07 02:49:00,57.4,56.0,30.66,East,86,1.5,1.8,97,0.00,,,0.03,TxWx,2013-06-07 06:49:00,
2013-06-07 02:54:00,57.5,56.0,30.66,East,86,1.2,1.2,97,0.00,,,0.03,TxWx,2013-06-07 06:54:00,
2013-06-07 03:00:00,57.4,56.0,30.66,East,86,2.1,2.1,97,0.00,,,0.03,TxWx,2013-06-07 07:00:00,
2013-06-07 03:05:00,57.5,56.0,30.66,East,85,2.7,3.0,97,0.00,,,0.03,TxWx,2013-06-07 07:05:00,
2013-06-07 03:10:00,57.5,57.0,30.66,East,86,2.1,2.4,97,0.00,,,0.03,TxWx,2013-06-07 07:10:00,
2013-06-07 03:15:00,57.5,56.0,30.66,East,82,3.6,3.9,97,0.00,,,0.03,TxWx,2013-06-07 07:15:00,
2013-06-07 03:20:00,57.5,57.0,30.66,East,86,2.1,2.1,97,0.00,,,0.03,TxWx,2013-06-07 07:20:00,
2013-06-07 03:25:00,57.5,56.0,30.66,East,83,3.3,3.9,97,0.00,,,0.03,TxWx,2013-06-07 07:25:00,
2013-06-07 03:31:00,57.5,56.0,30.66,East,86,2.7,2.7,97,0.00,,,0.03,TxWx,2013-06-07 07:31:00,
2013-06-07 03:36:00,57.5,56.0,30.66,East,83,1.8,1.8,97,0.00,,,0.04,TxWx,2013-06-07 07:36:00,
2013-06-07 03:41:00,57.2,56.0,30.66,East,82,3.0,3.0,97,0.06,,,0.04,TxWx,2013-06-07 07:41:00,
2013-06-07 03:46:00,57.4,56.0,30.66,East,83,1.2,1.5,97,0.06,,,0.04,TxWx,2013-06-07 07:46:00,
2013-06-07 03:51:00,57.2,56.0,30.66,East,97,1.8,2.1,96,0.00,,,0.04,TxWx,2013-06-07 07:51:00,
2013-06-07 03:56:00,57.3,56.0,30.66,East,83,1.2,1.2,96,0.00,,,0.04,TxWx,2013-06-07 07:56:00,
2013-06-07 04:01:00,57.2,56.0,30.65,East,83,1.8,2.1,96,0.00,,,0.04,TxWx,2013-06-07 08:01:00,
2013-06-07 04:06:00,57.3,56.0,30.65,East,85,0.0,0.3,96,0.00,,,0.04,TxWx,2013-06-07 08:06:00,
2013-06-07 04:11:00,57.2,56.0,30.65,East,84,0.9,0.9,96,0.00,,,0.05,TxWx,2013-06-07 08:11:00,
2013-06-07 04:17:00,57.1,56.0,30.65,East,83,0.3,0.3,96,0.00,,,0.05,TxWx,2013-06-07 08:17:00,
2013-06-07 04:22:00,56.9,56.0,30.65,East,83,2.4,2.7,96,0.06,,,0.05,TxWx,2013-06-07 08:22:00,
2013-06-07 04:27:00,57.0,56.0,30.65,East,86,1.5,1.5,96,0.00,,,0.05,TxWx,2013-06-07 08:27:00,
2013-06-07 04:32:00,56.9,56.0,30.65,East,83,2.4,2.7,96,0.00,,,0.05,TxWx,2013-06-07 08:32:00,
2013-06-07 04:37:00,57.0,56.0,30.65,East,86,2.1,2.1,96,0.00,,,0.05,TxWx,2013-06-07 08:37:00,
2013-06-07 04:42:00,56.9,56.0,30.64,East,83,3.0,3.0,96,0.00,,,0.05,TxWx,2013-06-07 08:42:00,
2013-06-07 04:47:00,56.8,56.0,30.64,East,86,3.0,3.3,96,0.00,,,0.05,TxWx,2013-06-07 08:47:00,
2013-06-07 04:53:00,56.8,56.0,30.64,East,85,1.8,1.8,96,0.00,,,0.05,TxWx,2013-06-07 08:53:00,
2013-06-07 04:58:00,56.8,56.0,30.64,East,86,2.7,3.0,96,0.00,,,0.05,TxWx,2013-06-07 08:58:00,
2013-06-07 05:03:00,56.8,56.0,30.64,East,86,3.9,3.9,96,0.00,,,0.05,TxWx,2013-06-07 09:03:00,
2013-06-07 05:08:00,56.9,56.0,30.64,East,82,3.9,4.5,96,0.00,,,0.05,TxWx,2013-06-07 09:08:00,
2013-06-07 05:13:00,56.9,56.0,30.64,East,83,3.0,3.0,96,0.00,,,0.05,TxWx,2013-06-07 09:13:00,
2013-06-07 05:18:00,56.9,56.0,30.64,East,86,2.1,2.1,97,0.00,,,0.05,TxWx,2013-06-07 09:18:00,
2013-06-07 05:23:00,57.0,56.0,30.64,East,83,0.6,0.6,97,0.00,,,0.05,TxWx,2013-06-07 09:23:00,
2013-06-07 05:29:00,57.0,56.0,30.64,East,82,1.8,1.8,97,0.00,,,0.05,TxWx,2013-06-07 09:29:00,
2013-06-07 05:34:00,57.0,56.0,30.64,East,83,2.7,2.7,97,0.00,,,0.05,TxWx,2013-06-07 09:34:00,
2013-06-07 05:39:00,56.9,56.0,30.64,East,82,2.4,2.4,97,0.00,,,0.05,TxWx,2013-06-07 09:39:00,
2013-06-07 05:44:00,56.9,56.0,30.64,East,83,2.4,3.0,97,0.00,,,0.05,TxWx,2013-06-07 09:44:00,
2013-06-07 05:49:00,57.0,56.0,30.64,East,83,1.8,2.4,97,0.00,,,0.05,TxWx,2013-06-07 09:49:00,
2013-06-07 05:54:00,57.0,56.0,30.64,East,85,0.0,0.6,97,0.00,,,0.05,TxWx,2013-06-07 09:54:00,
2013-06-07 05:59:00,57.0,56.0,30.64,East,82,2.7,2.7,97,0.00,,,0.05,TxWx,2013-06-07 09:59:00,
2013-06-07 06:04:00,56.9,56.0,30.64,East,86,2.7,2.7,97,0.00,,,0.05,TxWx,2013-06-07 10:04:00,
2013-06-07 06:09:00,57.0,56.0,30.65,East,82,1.5,1.5,97,0.00,,,0.05,TxWx,2013-06-07 10:09:00,
2013-06-07 06:14:00,57.1,56.0,30.65,East,84,1.5,1.5,97,0.00,,,0.05,TxWx,2013-06-07 10:14:00,
2013-06-07 06:19:00,57.0,56.0,30.65,East,83,4.5,5.4,97,0.00,,,0.05,TxWx,2013-06-07 10:19:00,
2013-06-07 06:24:00,56.9,56.0,30.65,East,82,5.7,6.0,97,0.00,,,0.05,TxWx,2013-06-07 10:24:00,
2013-06-07 06:30:00,57.1,56.0,30.65,East,83,1.5,1.8,97,0.00,,,0.05,TxWx,2013-06-07 10:30:00,
2013-06-07 06:35:00,57.0,56.0,30.65,East,82,2.7,2.7,97,0.00,,,0.05,TxWx,2013-06-07 10:35:00,
2013-06-07 06:40:00,57.0,56.0,30.65,East,83,1.8,1.8,97,0.00,,,0.05,TxWx,2013-06-07 10:40:00,
2013-06-07 06:45:00,57.1,56.0,30.64,East,83,3.3,3.3,97,0.00,,,0.05,TxWx,2013-06-07 10:45:00,
2013-06-07 06:50:00,57.2,56.0,30.64,East,82,2.4,2.4,97,0.00,,,0.05,TxWx,2013-06-07 10:50:00,
2013-06-07 06:55:00,57.1,56.0,30.64,East,86,2.7,2.7,97,0.00,,,0.05,TxWx,2013-06-07 10:55:00,
2013-06-07 07:01:00,57.0,56.0,30.65,East,82,3.9,4.2,97,0.00,,,0.05,TxWx,2013-06-07 11:01:00,
2013-06-07 07:06:00,57.1,56.0,30.65,East,82,2.4,2.7,97,0.00,,,0.05,TxWx,2013-06-07 11:06:00,
2013-06-07 07:11:00,57.0,56.0,30.65,East,83,3.3,3.3,97,0.00,,,0.05,TxWx,2013-06-07 11:11:00,
2013-06-07 07:16:00,57.0,56.0,30.64,East,89,2.4,3.0,98,0.00,,,0.05,TxWx,2013-06-07 11:16:00,
2013-06-07 07:21:00,57.1,56.0,30.64,East,82,3.9,4.5,98,0.00,,,0.05,TxWx,2013-06-07 11:21:00,
2013-06-07 07:26:00,57.2,56.0,30.64,East,85,2.4,3.0,98,0.00,,,0.05,TxWx,2013-06-07 11:26:00,
2013-06-07 07:31:00,57.1,56.0,30.64,East,83,2.7,3.3,98,0.00,,,0.05,TxWx,2013-06-07 11:31:00,
2013-06-07 07:37:00,57.2,56.0,30.64,East,82,2.1,2.7,98,0.00,,,0.06,TxWx,2013-06-07 11:37:00,
2013-06-07 07:42:00,57.2,57.0,30.64,East,83,3.6,3.9,99,0.06,,,0.06,TxWx,2013-06-07 11:42:00,
2013-06-07 07:47:00,57.3,57.0,30.64,East,82,2.4,3.0,99,0.00,,,0.06,TxWx,2013-06-07 11:47:00,
2013-06-07 07:52:00,57.3,57.0,30.64,East,83,3.3,3.3,99,0.00,,,0.06,TxWx,2013-06-07 11:52:00,
2013-06-07 07:58:00,57.4,57.0,30.64,East,86,2.1,2.1,99,0.06,,,0.07,TxWx,2013-06-07 11:58:00,
2013-06-07 08:03:00,57.5,58.0,30.64,East,82,4.8,4.8,99,0.06,,,0.07,TxWx,2013-06-07 12:03:00,
2013-06-07 08:08:00,57.6,58.0,30.64,East,82,1.2,1.5,99,0.00,,,0.07,TxWx,2013-06-07 12:08:00,
2013-06-07 08:13:00,57.5,57.0,30.64,East,83,3.9,3.9,99,0.00,,,0.07,TxWx,2013-06-07 12:13:00,
2013-06-07 08:18:00,57.6,58.0,30.64,East,86,3.0,3.0,100,0.06,,,0.08,TxWx,2013-06-07 12:18:00,
2013-06-07 08:23:00,57.9,58.0,30.64,East,85,2.1,2.1,100,0.06,,,0.08,TxWx,2013-06-07 12:23:00,
2013-06-07 08:28:00,57.9,58.0,30.64,East,86,2.7,3.0,100,0.00,,,0.08,TxWx,2013-06-07 12:28:00,
2013-06-07 08:34:00,57.9,58.0,30.64,East,83,3.9,3.9,100,0.00,,,0.08,TxWx,2013-06-07 12:34:00,
2013-06-07 08:39:00,58.1,58.0,30.64,East,83,2.7,3.3,100,0.00,,,0.08,TxWx,2013-06-07 12:39:00,
2013-06-07 08:44:00,58.2,58.0,30.64,East,86,3.6,3.9,100,0.00,,,0.08,TxWx,2013-06-07 12:44:00,
2013-06-07 08:49:00,58.4,58.0,30.64,East,83,5.1,5.1,100,0.00,,,0.09,TxWx,2013-06-07 12:49:00,
2013-06-07 08:54:00,58.5,59.0,30.64,East,83,2.7,3.0,100,0.00,,,0.09,TxWx,2013-06-07 12:54:00,
2013-06-07 09:00:00,58.6,59.0,30.64,East,83,5.1,5.1,100,0.06,,,0.09,TxWx,2013-06-07 13:00:00,
2013-06-07 09:05:00,58.6,59.0,30.63,East,83,3.3,3.3,100,0.06,,,0.09,TxWx,2013-06-07 13:05:00,
2013-06-07 09:10:00,58.8,59.0,30.63,East,83,4.5,4.8,100,0.00,,,0.09,TxWx,2013-06-07 13:10:00,
2013-06-07 09:15:00,59.0,59.0,30.64,East,83,2.4,2.4,100,0.00,,,0.09,TxWx,2013-06-07 13:15:00,
2013-06-07 09:20:00,58.9,59.0,30.64,East,83,2.7,2.7,100,0.00,,,0.09,TxWx,2013-06-07 13:20:00,
2013-06-07 09:25:00,59.0,59.0,30.64,East,83,1.2,1.2,100,0.00,,,0.09,TxWx,2013-06-07 13:25:00,
2013-06-07 09:30:00,59.0,59.0,30.64,East,83,3.9,3.9,100,0.06,,,0.10,TxWx,2013-06-07 13:30:00,
2013-06-07 09:35:00,58.8,59.0,30.64,East,83,6.0,6.9,100,0.06,,,0.11,TxWx,2013-06-07 13:35:00,
2013-06-07 09:40:00,58.9,59.0,30.64,East,83,5.7,5.7,100,0.06,,,0.12,TxWx,2013-06-07 13:40:00,
2013-06-07 09:45:00,59.0,59.0,30.64,East,83,4.5,4.5,100,0.06,,,0.13,TxWx,2013-06-07 13:45:00,
2013-06-07 09:50:00,58.9,59.0,30.64,East,83,6.3,6.6,100,0.12,,,0.14,TxWx,2013-06-07 13:50:00,
2013-06-07 09:55:00,59.1,59.0,30.64,East,82,5.7,5.7,100,0.12,,,0.14,TxWx,2013-06-07 13:55:00,
2013-06-07 10:00:00,59.0,59.0,30.64,East,83,1.5,1.8,100,0.06,,,0.15,TxWx,2013-06-07 14:00:00,
2013-06-07 10:06:00,59.1,59.0,30.64,East,83,4.8,5.1,100,0.06,,,0.15,TxWx,2013-06-07 14:06:00,
2013-06-07 10:11:00,59.2,59.0,30.64,East,83,1.8,1.8,100,0.06,,,0.15,TxWx,2013-06-07 14:11:00,
2013-06-07 10:16:00,59.2,59.0,30.64,East,84,3.6,3.6,100,0.06,,,0.15,TxWx,2013-06-07 14:16:00,
2013-06-07 10:21:00,59.3,59.0,30.64,East,83,2.1,2.4,100,0.00,,,0.16,TxWx,2013-06-07 14:21:00,
2013-06-07 10:26:00,59.5,60.0,30.64,East,84,5.7,6.9,100,0.00,,,0.16,TxWx,2013-06-07 14:26:00,
2013-06-07 10:32:00,59.4,59.0,30.64,East,83,3.6,3.6,100,0.06,,,0.17,TxWx,2013-06-07 14:32:00,
2013-06-07 10:37:00,59.7,60.0,30.64,East,83,7.2,7.2,100,0.06,,,0.17,TxWx,2013-06-07 14:37:00,
2013-06-07 10:42:00,59.8,60.0,30.64,East,84,9.9,9.9,100,0.06,,,0.18,TxWx,2013-06-07 14:42:00,
2013-06-07 10:47:00,60.0,60.0,30.64,East,83,16.2,16.2,100,0.12,,,0.19,TxWx,2013-06-07 14:47:00,
2013-06-07 10:52:00,60.1,60.0,30.64,East,83,7.5,8.7,100,0.12,,,0.19,TxWx,2013-06-07 14:52:00,
2013-06-07 10:57:00,60.2,60.0,30.63,East,83,3.6,4.5,99,0.00,,,0.19,TxWx,2013-06-07 14:57:00,
2013-06-07 11:02:00,60.1,60.0,30.63,East,83,2.4,2.4,99,0.00,,,0.20,TxWx,2013-06-07 15:02:00,
2013-06-07 11:08:00,60.3,60.0,30.63,East,83,5.4,5.4,99,0.06,,,0.21,TxWx,2013-06-07 15:08:00,
2013-06-07 11:13:00,60.3,60.0,30.63,East,83,3.9,4.5,99,0.06,,,0.21,TxWx,2013-06-07 15:13:00,
2013-06-07 11:18:00,60.0,60.0,30.63,East,83,3.3,3.3,99,0.06,,,0.21,TxWx,2013-06-07 15:18:00,
2013-06-07 11:23:00,60.2,60.0,30.63,East,84,4.5,5.7,99,0.06,,,0.22,TxWx,2013-06-07 15:23:00,
2013-06-07 11:28:00,60.4,60.0,30.63,East,83,7.5,7.8,99,0.12,,,0.23,TxWx,2013-06-07 15:28:00,
2013-06-07 11:33:00,60.3,60.0,30.62,East,83,7.5,7.5,99,0.12,,,0.24,TxWx,2013-06-07 15:33:00,
2013-06-07 11:38:00,60.5,61.0,30.62,East,83,5.4,5.4,99,0.06,,,0.25,TxWx,2013-06-07 15:38:00,
2013-06-07 11:43:00,60.6,61.0,30.62,East,83,5.1,5.1,99,0.06,,,0.25,TxWx,2013-06-07 15:43:00,
2013-06-07 11:49:00,60.6,61.0,30.62,East,84,4.5,4.5,99,0.06,,,0.26,TxWx,2013-06-07 15:49:00,
2013-06-07 11:54:00,60.6,60.0,30.61,East,83,3.9,3.9,98,0.06,,,0.26,TxWx,2013-06-07 15:54:00,
2013-06-07 11:59:00,60.4,59.0,30.61,East,83,9.6,11.7,98,0.06,,,0.27,TxWx,2013-06-07 15:59:00,
2013-06-07 12:04:00,60.4,59.0,30.61,East,82,6.3,10.2,98,0.06,,,0.27,TxWx,2013-06-07 16:04:00,
2013-06-07 12:09:00,60.4,59.0,30.61,East,84,2.4,2.4,98,0.06,,,0.27,TxWx,2013-06-07 16:09:00,
2013-06-07 12:14:00,60.5,59.0,30.62,East,86,4.5,5.1,98,0.06,,,0.28,TxWx,2013-06-07 16:14:00,
2013-06-07 12:19:00,60.5,59.0,30.62,East,83,3.3,3.6,98,0.06,,,0.28,TxWx,2013-06-07 16:19:00,
2013-06-07 12:25:00,60.6,60.0,30.61,East,83,4.8,4.8,98,0.06,,,0.29,TxWx,2013-06-07 16:25:00,
2013-06-07 12:30:00,60.4,59.0,30.61,East,83,5.1,5.1,98,0.06,,,0.29,TxWx,2013-06-07 16:30:00,
2013-06-07 12:35:00,60.5,60.0,30.61,East,83,2.4,2.4,98,0.06,,,0.30,TxWx,2013-06-07 16:35:00,
2013-06-07 12:40:00,60.6,60.0,30.61,East,83,3.3,3.9,98,0.06,,,0.31,TxWx,2013-06-07 16:40:00,
2013-06-07 12:46:00,60.6,60.0,30.61,East,83,3.3,4.2,98,0.06,,,0.31,TxWx,2013-06-07 16:46:00,
2013-06-07 12:51:00,60.5,59.0,30.61,East,83,6.3,6.3,98,0.06,,,0.32,TxWx,2013-06-07 16:51:00,
2013-06-07 12:56:00,60.4,59.0,30.61,East,83,4.8,5.1,98,0.06,,,0.33,TxWx,2013-06-07 16:56:00,
2013-06-07 13:01:00,60.3,59.0,30.61,East,83,4.2,4.2,98,0.12,,,0.34,TxWx,2013-06-07 17:01:00,
2013-06-07 13:06:00,60.3,59.0,30.60,East,83,5.4,6.3,98,0.12,,,0.35,TxWx,2013-06-07 17:06:00,
2013-06-07 13:12:00,60.2,60.0,30.60,East,83,11.1,12.0,99,0.12,,,0.36,TxWx,2013-06-07 17:12:00,
2013-06-07 13:17:00,60.1,60.0,30.60,East,83,3.9,4.5,99,0.18,,,0.38,TxWx,2013-06-07 17:17:00,
2013-06-07 13:22:00,60.0,60.0,30.59,East,83,9.6,9.9,99,0.18,,,0.39,TxWx,2013-06-07 17:22:00,
2013-06-07 13:27:00,60.2,60.0,30.59,East,83,1.2,1.2,99,0.06,,,0.39,TxWx,2013-06-07 17:27:00,
2013-06-07 13:33:00,60.2,60.0,30.58,East,82,6.9,6.9,99,0.06,,,0.40,TxWx,2013-06-07 17:33:00,
2013-06-07 13:37:00,60.1,60.0,30.58,East,83,6.9,10.2,99,0.06,,,0.40,TxWx,2013-06-07 17:37:00,
2013-06-07 13:43:00,60.3,60.0,30.58,East,83,3.3,3.3,99,0.06,,,0.41,TxWx,2013-06-07 17:43:00,
2013-06-07 13:48:00,60.1,60.0,30.58,East,83,5.1,5.1,99,0.06,,,0.41,TxWx,2013-06-07 17:48:00,
2013-06-07 13:53:00,60.3,60.0,30.57,East,83,5.4,5.4,99,0.06,,,0.42,TxWx,2013-06-07 17:53:00,
2013-06-07 13:58:00,60.3,60.0,30.57,East,83,6.9,7.2,99,0.06,,,0.43,TxWx,2013-06-07 17:58:00,
2013-06-07 14:03:00,60.2,60.0,30.57,East,83,3.0,3.6,99,0.06,,,0.43,TxWx,2013-06-07 18:03:00,
2013-06-07 14:09:00,60.1,60.0,30.57,East,83,8.4,10.8,99,0.06,,,0.44,TxWx,2013-06-07 18:09:00,
2013-06-07 14:14:00,60.3,60.0,30.57,East,82,3.9,3.9,99,0.06,,,0.45,TxWx,2013-06-07 18:14:00,
2013-06-07 14:19:00,60.3,60.0,30.57,East,83,6.6,6.9,99,0.12,,,0.45,TxWx,2013-06-07 18:19:00,
2013-06-07 14:25:00,60.3,60.0,30.56,East,83,3.3,3.6,99,0.12,,,0.46,TxWx,2013-06-07 18:25:00,
2013-06-07 14:30:00,60.4,60.0,30.56,East,86,3.9,3.9,99,0.06,,,0.47,TxWx,2013-06-07 18:30:00,
2013-06-07 14:35:00,60.3,60.0,30.56,East,83,8.7,9.9,99,0.06,,,0.47,TxWx,2013-06-07 18:35:00,
2013-06-07 14:40:00,60.3,60.0,30.56,East,83,8.4,9.0,99,0.06,,,0.48,TxWx,2013-06-07 18:40:00,
2013-06-07 14:45:00,60.3,60.0,30.56,East,82,6.0,7.5,99,0.06,,,0.49,TxWx,2013-06-07 18:45:00,
2013-06-07 14:50:00,60.3,60.0,30.55,East,83,4.5,5.7,99,0.12,,,0.50,TxWx,2013-06-07 18:50:00,
2013-06-07 14:55:00,60.3,60.0,30.55,East,83,8.4,8.4,99,0.12,,,0.51,TxWx,2013-06-07 18:55:00,
2013-06-07 15:01:00,60.4,60.0,30.55,East,83,3.3,3.9,99,0.12,,,0.52,TxWx,2013-06-07 19:01:00,
2013-06-07 15:06:00,60.3,60.0,30.55,East,83,5.7,7.2,99,0.12,,,0.53,TxWx,2013-06-07 19:06:00,
2013-06-07 15:11:00,60.5,60.0,30.55,East,86,3.3,3.6,99,0.12,,,0.54,TxWx,2013-06-07 19:11:00,
2013-06-07 15:16:00,60.4,60.0,30.55,East,83,6.3,7.5,99,0.12,,,0.55,TxWx,2013-06-07 19:16:00,
2013-06-07 15:21:00,60.5,60.0,30.55,East,83,3.6,4.8,99,0.12,,,0.55,TxWx,2013-06-07 19:21:00,
2013-06-07 15:26:00,60.5,60.0,30.54,East,83,2.7,2.7,99,0.12,,,0.56,TxWx,2013-06-07 19:26:00,
2013-06-07 15:31:00,60.5,60.0,30.55,East,83,6.0,6.0,99,0.06,,,0.56,TxWx,2013-06-07 19:31:00,
2013-06-07 15:36:00,60.5,60.0,30.54,East,83,3.9,4.8,99,0.06,,,0.57,TxWx,2013-06-07 19:36:00,
2013-06-07 15:41:00,60.6,61.0,30.54,East,83,3.3,3.3,100,0.06,,,0.57,TxWx,2013-06-07 19:41:00,
2013-06-07 15:47:00,60.5,60.0,30.54,East,83,7.2,8.4,100,0.00,,,0.57,TxWx,2013-06-07 19:47:00,
2013-06-07 15:52:00,60.5,60.0,30.54,East,83,5.1,6.0,100,0.00,,,0.58,TxWx,2013-06-07 19:52:00,
2013-06-07 15:57:00,60.5,60.0,30.54,East,86,6.0,6.0,99,0.06,,,0.58,TxWx,2013-06-07 19:57:00,
2013-06-07 16:02:00,60.5,60.0,30.54,East,85,6.3,6.3,99,0.06,,,0.59,TxWx,2013-06-07 20:02:00,
2013-06-07 16:03:00,55.8,56.0,30.35,East,84,4.8,4.8,100,0.24,,,0.02,TxWx,2013-06-07 20:03:00,
2013-06-07 16:04:00,55.8,56.0,30.35,East,82,4.5,6.0,100,0.24,,,0.02,TxWx,2013-06-07 20:04:00,
2013-06-07 16:05:00,55.7,56.0,30.35,East,84,4.2,4.8,100,0.24,,,0.03,TxWx,2013-06-07 20:05:00,
2013-06-07 16:06:00,55.6,56.0,30.35,East,84,5.4,5.4,100,0.24,,,0.04,TxWx,2013-06-07 20:06:00,
2013-06-07 16:07:00,55.7,56.0,30.35,East,84,7.2,7.8,100,0.24,,,0.04,TxWx,2013-06-07 20:07:00,
2013-06-07 16:08:00,60.5,60.0,30.54,East,83,4.8,5.1,99,0.12,,,0.60,TxWx,2013-06-07 20:08:00,
2013-06-07 16:09:00,55.6,56.0,30.35,East,84,5.1,5.1,100,0.24,,,0.06,TxWx,2013-06-07 20:09:00,
2013-06-07 16:10:00,55.6,56.0,30.35,East,85,12.0,12.0,100,0.36,,,0.07,TxWx,2013-06-07 20:10:00,
2013-06-07 16:11:00,55.6,56.0,30.35,East,84,6.3,6.3,100,0.36,,,0.08,TxWx,2013-06-07 20:11:00,
2013-06-07 16:12:00,55.6,56.0,30.35,East,85,6.9,6.9,100,0.36,,,0.08,TxWx,2013-06-07 20:12:00,
2013-06-07 16:13:00,60.5,61.0,30.53,East,85,1.5,1.8,99,0.12,,,0.61,TxWx,2013-06-07 20:13:00,
2013-06-07 16:14:00,55.6,56.0,30.35,East,85,6.9,6.9,100,0.36,,,0.10,TxWx,2013-06-07 20:14:00,
2013-06-07 16:15:00,55.7,56.0,30.35,East,84,9.0,9.3,100,0.36,,,0.10,TxWx,2013-06-07 20:15:00,
2013-06-07 16:16:00,55.5,56.0,30.35,East,82,5.7,5.7,100,0.36,,,0.10,TxWx,2013-06-07 20:16:00,
2013-06-07 16:17:00,55.6,56.0,30.35,East,84,7.2,7.2,100,0.36,,,0.11,TxWx,2013-06-07 20:17:00,
2013-06-07 16:18:00,60.3,60.0,30.53,East,83,7.8,7.8,99,0.06,,,0.61,TxWx,2013-06-07 20:18:00,
2013-06-07 16:19:00,55.6,56.0,30.34,East,84,5.7,5.7,100,0.36,,,0.12,TxWx,2013-06-07 20:19:00,
2013-06-07 16:20:00,55.6,56.0,30.34,East,84,9.3,9.3,100,0.36,,,0.12,TxWx,2013-06-07 20:20:00,
2013-06-07 16:21:00,55.6,56.0,30.34,East,84,7.5,7.5,100,0.36,,,0.12,TxWx,2013-06-07 20:21:00,
2013-06-07 16:22:00,55.6,56.0,30.35,East,84,5.4,5.4,100,0.36,,,0.12,TxWx,2013-06-07 20:22:00,
2013-06-07 16:23:00,60.3,60.0,30.53,East,83,3.6,3.6,99,0.06,,,0.62,TxWx,2013-06-07 20:23:00,
2013-06-07 16:24:00,55.6,56.0,30.36,East,84,8.1,8.1,100,0.36,,,0.14,TxWx,2013-06-07 20:24:00,
2013-06-07 16:25:00,55.5,56.0,30.36,East,84,5.7,6.0,100,0.36,,,0.15,TxWx,2013-06-07 20:25:00,
2013-06-07 16:26:00,55.5,56.0,30.37,East,84,5.1,5.4,100,0.36,,,0.16,TxWx,2013-06-07 20:26:00,
2013-06-07 16:27:00,55.6,56.0,30.37,East,84,4.8,4.8,100,0.36,,,0.16,TxWx,2013-06-07 20:27:00,
2013-06-07 16:28:00,60.2,60.0,30.53,East,83,4.2,4.5,99,0.12,,,0.64,TxWx,2013-06-07 20:28:00,
2013-06-07 16:29:00,55.7,56.0,30.36,East,84,5.4,5.7,100,0.36,,,0.22,TxWx,2013-06-07 20:29:00,
2013-06-07 16:30:00,55.7,56.0,30.36,East,84,8.4,8.7,100,0.78,,,0.25,TxWx,2013-06-07 20:30:00,
2013-06-07 16:31:00,55.5,55.0,30.35,East,84,10.8,10.8,100,0.78,,,0.28,TxWx,2013-06-07 20:31:00,
2013-06-07 16:32:00,55.5,55.0,30.35,East,84,12.6,12.6,100,0.78,,,0.28,TxWx,2013-06-07 20:32:00,
2013-06-07 16:33:00,60.2,60.0,30.53,East,85,3.6,3.6,99,0.12,,,0.65,TxWx,2013-06-07 20:33:00,
2013-06-07 16:34:00,55.6,56.0,30.35,East,85,5.7,5.7,100,0.78,,,0.35,TxWx,2013-06-07 20:34:00,
2013-06-07 16:35:00,55.5,55.0,30.35,East,84,3.9,4.5,100,0.78,,,0.37,TxWx,2013-06-07 20:35:00,
2013-06-07 16:36:00,55.5,56.0,30.36,East,83,1.8,1.8,100,0.78,,,0.42,TxWx,2013-06-07 20:36:00,
2013-06-07 16:37:00,55.6,56.0,30.36,East,85,2.4,2.4,100,0.78,,,0.44,TxWx,2013-06-07 20:37:00,
2013-06-07 16:38:00,55.6,56.0,30.35,East,85,5.4,6.0,100,0.78,,,0.48,TxWx,2013-06-07 20:38:00,
2013-06-07 16:39:00,60.2,60.0,30.53,East,83,3.9,4.2,99,0.18,,,0.67,TxWx,2013-06-07 20:39:00,
2013-06-07 16:40:00,55.5,56.0,30.34,East,86,6.9,7.2,100,1.80,,,0.60,TxWx,2013-06-07 20:40:00,
2013-06-07 16:42:00,55.5,56.0,30.33,East,82,9.6,9.6,100,1.80,,,0.64,TxWx,2013-06-07 20:42:00,
2013-06-07 16:43:00,55.4,55.0,30.33,East,84,9.3,9.3,100,1.80,,,0.70,TxWx,2013-06-07 20:43:00,
2013-06-07 16:44:00,60.2,60.0,30.53,East,83,4.8,6.3,99,0.18,,,0.69,TxWx,2013-06-07 20:44:00,
2013-06-07 16:46:00,55.1,55.0,30.33,East,84,6.9,8.7,100,1.80,,,0.83,TxWx,2013-06-07 20:46:00,
2013-06-07 16:49:00,60.1,60.0,30.53,East,83,5.4,5.7,100,0.24,,,0.70,TxWx,2013-06-07 20:49:00,
2013-06-07 16:51:00,55.1,55.0,30.35,East,84,9.3,9.3,100,1.98,,,0.90,TxWx,2013-06-07 20:51:00,
2013-06-07 16:53:00,55.2,55.0,30.33,East,84,6.0,6.0,100,1.98,,,0.92,TxWx,2013-06-07 20:53:00,
2013-06-07 16:54:00,60.2,60.0,30.53,East,85,3.0,3.0,100,0.24,,,0.71,TxWx,2013-06-07 20:54:00,
2013-06-07 17:00:00,60.1,60.0,30.52,East,82,2.7,2.7,100,0.12,,,0.73,TxWx,2013-06-07 21:00:00,
2013-06-07 17:05:00,60.0,60.0,30.52,East,82,7.8,7.8,100,0.12,,,0.74,TxWx,2013-06-07 21:05:00,
2013-06-07 17:10:00,59.8,60.0,30.52,East,83,7.8,7.8,100,0.12,,,0.75,TxWx,2013-06-07 21:10:00,
2013-06-07 17:15:00,59.9,60.0,30.52,East,82,5.7,6.0,100,0.12,,,0.75,TxWx,2013-06-07 21:15:00,
2013-06-07 17:20:00,60.0,60.0,30.52,East,83,0.9,1.2,100,0.06,,,0.76,TxWx,2013-06-07 21:20:00,
2013-06-07 17:25:00,60.0,60.0,30.52,East,83,4.5,4.5,100,0.06,,,0.76,TxWx,2013-06-07 21:25:00,
2013-06-07 17:31:00,60.0,60.0,30.52,East,83,5.7,6.6,100,0.12,,,0.77,TxWx,2013-06-07 21:31:00,
2013-06-07 17:36:00,60.0,60.0,30.52,East,83,4.8,4.8,100,0.12,,,0.77,TxWx,2013-06-07 21:36:00,
2013-06-07 17:41:00,60.0,60.0,30.51,East,82,6.0,6.3,100,0.06,,,0.78,TxWx,2013-06-07 21:41:00,
2013-06-07 17:46:00,60.0,60.0,30.50,East,85,7.2,7.2,100,0.06,,,0.79,TxWx,2013-06-07 21:46:00,
2013-06-07 17:51:00,60.0,60.0,30.50,East,83,3.3,3.6,100,0.12,,,0.81,TxWx,2013-06-07 21:51:00,
2013-06-07 17:56:00,60.0,60.0,30.49,East,83,5.1,5.7,100,0.12,,,0.82,TxWx,2013-06-07 21:56:00,
2013-06-07 18:02:00,59.7,60.0,30.49,East,83,6.6,6.9,100,0.18,,,0.84,TxWx,2013-06-07 22:02:00,
2013-06-07 18:07:00,59.9,60.0,30.49,East,85,3.0,3.6,100,0.12,,,0.85,TxWx,2013-06-07 22:07:00,
2013-06-07 18:12:00,59.8,60.0,30.49,East,89,3.9,4.5,100,0.12,,,0.87,TxWx,2013-06-07 22:12:00,
2013-06-07 18:17:00,59.8,60.0,30.47,East,85,6.3,6.9,100,0.18,,,0.88,TxWx,2013-06-07 22:17:00,
2013-06-07 18:22:00,59.6,60.0,30.47,East,82,12.0,12.9,100,0.18,,,0.91,TxWx,2013-06-07 22:22:00,
2013-06-07 18:27:00,59.5,60.0,30.47,East,85,11.4,12.6,100,0.30,,,0.93,TxWx,2013-06-07 22:27:00,
2013-06-07 18:32:00,59.6,60.0,30.45,East,83,12.6,12.6,100,0.30,,,0.94,TxWx,2013-06-07 22:32:00,
2013-06-07 18:38:00,59.7,60.0,30.45,East,83,3.9,3.9,100,0.12,,,0.95,TxWx,2013-06-07 22:38:00,
2013-06-07 18:43:00,59.7,60.0,30.44,East,84,6.0,8.1,100,0.12,,,0.96,TxWx,2013-06-07 22:43:00,
2013-06-07 18:48:00,59.7,60.0,30.45,East,82,7.8,7.8,100,0.06,,,0.96,TxWx,2013-06-07 22:48:00,
2013-06-07 18:53:00,59.7,60.0,30.44,East,83,9.3,10.8,100,0.06,,,0.97,TxWx,2013-06-07 22:53:00,
2013-06-07 18:58:00,59.6,60.0,30.44,East,83,7.8,7.8,100,0.12,,,0.99,TxWx,2013-06-07 22:58:00,
2013-06-07 19:03:00,59.6,60.0,30.43,East,83,7.5,9.9,100,0.12,,,1.03,TxWx,2013-06-07 23:03:00,
2013-06-07 19:08:00,59.5,60.0,30.43,East,85,2.1,2.4,100,0.60,,,1.11,TxWx,2013-06-07 23:08:00,
2013-06-07 19:13:00,59.5,60.0,30.44,East,83,5.1,6.3,100,0.60,,,1.16,TxWx,2013-06-07 23:13:00,
2013-06-07 19:19:00,59.1,59.0,30.44,East,82,5.7,5.7,100,0.66,,,1.20,TxWx,2013-06-07 23:19:00,
2013-06-07 19:24:00,59.1,59.0,30.44,East,84,5.1,5.1,100,0.66,,,1.31,TxWx,2013-06-07 23:24:00,
2013-06-07 19:30:00,59.0,59.0,30.44,East,84,3.6,3.9,100,0.84,,,1.35,TxWx,2013-06-07 23:30:00,
2013-06-07 19:35:00,58.9,59.0,30.43,East,84,9.3,10.5,100,0.84,,,1.37,TxWx,2013-06-07 23:35:00,
2013-06-07 19:40:00,58.8,59.0,30.42,East,83,10.5,10.5,100,0.24,,,1.42,TxWx,2013-06-07 23:40:00,
2013-06-07 19:46:00,58.5,59.0,30.43,East,84,9.9,12.0,100,0.24,,,1.47,TxWx,2013-06-07 23:46:00,
2013-06-07 19:51:00,58.3,58.0,30.44,East,83,9.6,10.8,100,0.66,,,1.54,TxWx,2013-06-07 23:51:00,
2013-06-07 19:56:00,58.3,58.0,30.44,East,83,7.5,8.7,100,0.66,,,1.61,TxWx,2013-06-07 23:56:00,
2013-06-07 20:01:00,58.1,58.0,30.44,East,83,8.7,9.0,100,0.84,,,1.69,TxWx,2013-06-08 00:01:00,
2013-06-07 20:07:00,58.2,58.0,30.45,East,83,10.2,10.2,100,0.78,,,1.75,TxWx,2013-06-08 00:07:00,
2013-06-07 20:12:00,58.0,58.0,30.45,East,83,4.5,4.5,100,0.78,,,1.82,TxWx,2013-06-08 00:12:00,
2013-06-07 20:17:00,57.8,58.0,30.44,East,83,3.9,3.9,100,0.72,,,1.88,TxWx,2013-06-08 00:17:00,
2013-06-07 20:22:00,58.0,58.0,30.45,East,83,0.9,1.2,100,0.72,,,1.90,TxWx,2013-06-08 00:22:00,
2013-06-07 20:27:00,57.8,58.0,30.45,East,83,2.7,3.0,100,0.30,,,1.93,TxWx,2013-06-08 00:27:00,
2013-06-07 20:32:00,57.7,58.0,30.44,East,83,3.6,3.9,100,0.30,,,1.95,TxWx,2013-06-08 00:32:00,
2013-06-07 20:37:00,57.6,58.0,30.44,East,85,5.4,5.7,100,0.30,,,1.97,TxWx,2013-06-08 00:37:00,
2013-06-07 20:43:00,57.4,57.0,30.44,East,82,7.8,8.7,100,0.30,,,1.99,TxWx,2013-06-08 00:43:00,
2013-06-07 20:48:00,57.3,57.0,30.43,East,85,3.9,3.9,100,0.36,,,2.03,TxWx,2013-06-08 00:48:00,
2013-06-07 20:53:00,57.0,57.0,30.44,East,84,6.3,6.9,100,0.36,,,2.07,TxWx,2013-06-08 00:53:00,
2013-06-07 20:58:00,57.0,57.0,30.44,East,85,6.3,6.3,100,0.30,,,2.09,TxWx,2013-06-08 00:58:00,
2013-06-07 21:03:00,57.0,57.0,30.44,East,85,6.0,6.0,100,0.30,,,2.11,TxWx,2013-06-08 01:03:00,
2013-06-07 21:08:00,56.8,57.0,30.43,East,84,8.1,8.7,100,0.36,,,2.15,TxWx,2013-06-08 01:08:00,
2013-06-07 21:14:00,57.0,57.0,30.43,East,82,14.7,14.7,100,0.36,,,2.16,TxWx,2013-06-08 01:14:00,
2013-06-07 21:19:00,57.2,57.0,30.44,East,83,5.7,6.6,100,0.12,,,2.16,TxWx,2013-06-08 01:19:00,
2013-06-07 21:24:00,57.2,57.0,30.44,East,84,1.5,1.8,100,0.12,,,2.18,TxWx,2013-06-08 01:24:00,
2013-06-07 21:29:00,57.0,57.0,30.43,East,84,2.1,2.4,100,0.18,,,2.19,TxWx,2013-06-08 01:29:00,
2013-06-07 21:35:00,57.0,57.0,30.43,East,83,9.3,9.3,100,0.18,,,2.20,TxWx,2013-06-08 01:35:00,
2013-06-07 21:40:00,57.0,57.0,30.43,East,83,8.4,8.4,100,0.06,,,2.20,TxWx,2013-06-08 01:40:00,
2013-06-07 21:45:00,57.0,57.0,30.43,East,83,12.0,12.0,100,0.06,,,2.22,TxWx,2013-06-08 01:45:00,
2013-06-07 21:50:00,56.7,57.0,30.42,East,83,6.6,9.9,100,0.42,,,2.28,TxWx,2013-06-08 01:50:00,
2013-06-07 21:55:00,56.7,57.0,30.42,East,83,6.9,6.9,100,0.42,,,2.29,TxWx,2013-06-08 01:55:00,
2013-06-07 22:00:00,56.6,57.0,30.42,East,83,4.2,6.3,100,0.12,,,2.31,TxWx,2013-06-08 02:00:00,
2013-06-07 22:06:00,56.6,57.0,30.42,East,83,9.3,10.2,100,0.12,,,2.32,TxWx,2013-06-08 02:06:00,
2013-06-07 22:11:00,56.4,56.0,30.42,East,83,12.9,15.0,100,0.18,,,2.33,TxWx,2013-06-08 02:11:00,
2013-06-07 22:16:00,56.5,57.0,30.42,East,83,10.2,10.5,100,0.18,,,2.35,TxWx,2013-06-08 02:16:00,
2013-06-07 22:22:00,56.3,56.0,30.42,East,83,4.8,5.1,100,0.18,,,2.35,TxWx,2013-06-08 02:22:00,
2013-06-07 22:27:00,56.2,56.0,30.41,East,83,9.3,10.2,100,0.18,,,2.37,TxWx,2013-06-08 02:27:00,
2013-06-07 22:32:00,56.3,56.0,30.41,East,83,6.3,7.2,100,0.12,,,2.38,TxWx,2013-06-08 02:32:00,
2013-06-07 22:37:00,56.2,56.0,30.41,East,83,7.2,7.5,100,0.12,,,2.39,TxWx,2013-06-08 02:37:00,
2013-06-07 22:42:00,55.9,56.0,30.40,East,83,10.5,10.5,100,0.12,,,2.43,TxWx,2013-06-08 02:42:00,
2013-06-07 22:47:00,55.8,56.0,30.41,East,82,8.7,9.0,100,0.42,,,2.46,TxWx,2013-06-08 02:47:00,
2013-06-07 22:52:00,56.1,56.0,30.40,East,83,2.4,2.4,100,0.42,,,2.47,TxWx,2013-06-08 02:52:00,
2013-06-07 22:57:00,56.0,56.0,30.40,East,86,6.0,6.0,100,0.06,,,2.47,TxWx,2013-06-08 02:57:00,
2013-06-07 23:03:00,56.0,56.0,30.40,East,83,5.4,7.5,100,0.06,,,2.48,TxWx,2013-06-08 03:03:00,
2013-06-07 23:08:00,55.9,56.0,30.39,East,82,6.0,6.6,100,0.12,,,2.49,TxWx,2013-06-08 03:08:00,
2013-06-07 23:13:00,55.9,56.0,30.38,East,84,9.9,9.9,100,0.12,,,2.50,TxWx,2013-06-08 03:13:00,
2013-06-07 23:18:00,55.8,56.0,30.38,East,82,4.8,4.8,100,0.06,,,2.51,TxWx,2013-06-08 03:18:00,
2013-06-07 23:24:00,55.9,56.0,30.37,East,84,3.3,3.3,100,0.06,,,2.52,TxWx,2013-06-08 03:24:00,
2013-06-07 23:29:00,55.9,56.0,30.37,East,84,4.5,4.5,100,0.18,,,2.53,TxWx,2013-06-08 03:29:00,
2013-06-07 23:34:00,55.9,56.0,30.36,East,85,3.9,4.5,100,0.18,,,2.54,TxWx,2013-06-08 03:34:00,
2013-06-07 23:40:00,55.7,56.0,30.36,East,84,13.2,13.2,100,0.06,,,2.55,TxWx,2013-06-08 03:40:00,
2013-06-07 23:45:00,55.7,56.0,30.35,East,84,5.7,5.7,100,0.06,,,2.57,TxWx,2013-06-08 03:45:00,
2013-06-07 23:50:00,55.6,56.0,30.35,East,83,3.6,4.5,100,0.54,,,2.65,TxWx,2013-06-08 03:50:00,
2013-06-07 23:55:00,55.6,56.0,30.35,East,82,7.8,7.8,100,0.54,,,2.67,TxWx,2013-06-08 03:55:00,